createdAt,value
2019-05-07T00:02:28.787Z,99826.21
2019-05-07T00:05:02.630Z,99820.84
2019-05-07T00:07:34.061Z,99822.51
2019-05-07T00:10:06.347Z,99826.63
2019-05-07T00:12:38.151Z,99823.86
2019-05-07T00:15:09.861Z,99816.23
2019-05-07T00:17:43.144Z,99821.97
2019-05-07T00:20:16.724Z,99817.91
2019-05-07T00:22:48.512Z,99817.59
2019-05-07T00:25:20.208Z,99812.57
2019-05-07T00:27:52.431Z,99812.57
2019-05-07T00:30:24.322Z,99803.53
2019-05-07T00:32:55.743Z,99807.23
2019-05-07T00:35:29.139Z,99804.39
2019-05-07T00:38:05.199Z,99804.34
2019-05-07T00:40:53.638Z,99800.72
2019-05-07T00:43:26.992Z,99803.70
2019-05-07T00:46:02.258Z,99802.42
2019-05-07T00:48:33.761Z,99803.06
2019-05-07T00:51:25.274Z,99808.95
2019-05-07T00:53:57.213Z,99805.38
2019-05-07T00:56:28.947Z,99807.78
2019-05-07T00:59:02.198Z,99805.52
2019-05-07T01:01:34.775Z,99798.69
2019-05-07T01:04:06.190Z,99797.78
2019-05-07T01:06:38.008Z,99794.92
2019-05-07T01:09:12.124Z,99791.62
2019-05-07T01:11:43.178Z,99786.33
2019-05-07T01:14:14.667Z,99791.45
2019-05-07T01:16:46.521Z,99784.91
2019-05-07T01:19:17.960Z,99791.05
2019-05-07T01:21:52.331Z,99789.09
2019-05-07T01:24:23.490Z,99789.31
2019-05-07T01:26:55.197Z,99798.44
2019-05-07T01:29:27.255Z,99793.63
2019-05-07T01:32:03.797Z,99795.05
2019-05-07T01:34:37.219Z,99792.21
2019-05-07T01:37:08.806Z,99790.92
2019-05-07T01:39:42.214Z,99792.88
2019-05-07T01:42:13.939Z,99792.44
2019-05-07T01:44:45.577Z,99787.62
2019-05-07T01:47:17.398Z,99791.45
2019-05-07T01:49:49.069Z,99793.63
2019-05-07T01:52:22.638Z,99793.94
2019-05-07T01:54:54.257Z,99788.53
2019-05-07T01:57:27.244Z,99787.45
2019-05-07T01:59:58.803Z,99791.30
2019-05-07T02:02:38.639Z,99786.95
2019-05-07T02:05:18.012Z,99783.02
2019-05-07T02:07:52.151Z,99783.27
2019-05-07T02:10:32.065Z,99777.77
2019-05-07T02:13:03.807Z,99790.77
2019-05-07T02:15:36.371Z,99783.72
2019-05-07T02:18:07.999Z,99787.09
2019-05-07T02:20:39.869Z,99780.31
2019-05-07T02:23:12.804Z,99782.48
2019-05-07T02:25:44.526Z,99784.98
2019-05-07T02:28:16.274Z,99783.02
2019-05-07T02:30:47.948Z,99782.14
2019-05-07T02:33:22.770Z,99787.99
2019-05-07T02:35:53.682Z,99786.64
2019-05-07T02:38:27.313Z,99783.55
2019-05-07T02:41:02.933Z,99788.28
2019-05-07T02:43:34.406Z,99781.52
2019-05-07T02:46:31.006Z,99785.95
2019-05-07T02:48:58.873Z,99789.03
2019-05-07T02:51:33.345Z,99785.69
2019-05-07T02:54:24.133Z,99789.80
2019-05-07T02:56:56.392Z,99788.59
2019-05-07T02:59:27.979Z,99794.61
2019-05-07T03:02:03.695Z,99794.61
2019-05-07T03:04:33.908Z,99792.16
2019-05-07T03:07:05.688Z,99799.98
2019-05-07T03:09:37.392Z,99793.38
2019-05-07T03:12:12.919Z,99797.59
2019-05-07T03:14:43.919Z,99790.39
2019-05-07T03:17:15.660Z,99784.69
2019-05-07T03:19:48.953Z,99790.33
2019-05-07T03:22:23.162Z,99787.87
2019-05-07T03:24:55.446Z,99790.09
2019-05-07T03:27:27.137Z,99792.67
2019-05-07T03:30:09.439Z,99793.55
2019-05-07T03:32:47.631Z,99795.16
2019-05-07T03:35:27.385Z,99793.58
2019-05-07T03:37:56.865Z,99795.84
2019-05-07T03:40:32.675Z,99794.98
2019-05-07T03:43:06.129Z,99791.09
2019-05-07T03:45:54.136Z,99800.48
2019-05-07T03:48:27.583Z,99798.45
2019-05-07T03:50:59.241Z,99795.69
2019-05-07T03:53:33.550Z,99797.70
2019-05-07T03:56:04.749Z,99798.44
2019-05-07T03:58:36.492Z,99796.23
2019-05-07T04:01:08.210Z,99800.81
2019-05-07T04:03:40.174Z,99803.40
2019-05-07T04:06:12.739Z,99802.03
2019-05-07T04:08:44.911Z,99805.42
2019-05-07T04:11:16.475Z,99800.44
2019-05-07T04:13:48.562Z,99799.36
2019-05-07T04:16:19.919Z,99800.41
2019-05-07T04:18:53.093Z,99798.61
2019-05-07T04:21:24.736Z,99799.91
2019-05-07T04:24:14.729Z,99805.20
2019-05-07T04:26:47.986Z,99807.23
2019-05-07T04:29:22.891Z,99809.45
2019-05-07T04:31:53.464Z,99807.09
2019-05-07T04:34:44.554Z,99813.65
2019-05-07T04:37:17.260Z,99809.04
2019-05-07T04:39:54.947Z,99811.48
2019-05-07T04:42:26.671Z,99816.05
2019-05-07T04:44:58.398Z,99811.05
2019-05-07T04:47:42.496Z,99812.23
2019-05-07T04:50:09.114Z,99809.52
2019-05-07T04:52:43.709Z,99811.41
2019-05-07T04:55:14.862Z,99809.82
2019-05-07T04:57:46.685Z,99813.40
2019-05-07T05:00:18.615Z,99811.91
2019-05-07T05:02:57.907Z,99812.45
2019-05-07T05:05:32.738Z,99814.68
2019-05-07T05:08:03.870Z,99812.20
2019-05-07T05:10:35.619Z,99805.87
2019-05-07T05:13:07.592Z,99801.02
2019-05-07T05:15:39.117Z,99795.72
2019-05-07T05:18:12.712Z,99799.75
2019-05-07T05:20:46.170Z,99800.78
2019-05-07T05:23:28.736Z,99801.66
2019-05-07T05:26:01.957Z,99806.70
2019-05-07T05:28:34.749Z,99808.45
2019-05-07T05:31:07.502Z,99809.16
2019-05-07T05:33:41.765Z,99802.01
2019-05-07T05:36:12.865Z,99799.84
2019-05-07T05:38:44.643Z,99800.53
2019-05-07T05:41:16.333Z,99801.11
2019-05-07T05:44:06.230Z,99799.95
2019-05-07T05:46:37.987Z,99806.20
2019-05-07T05:49:11.867Z,99792.72
2019-05-07T05:51:45.273Z,99774.06
2019-05-07T05:54:23.283Z,99231.02
2019-05-07T05:57:08.720Z,99778.30
2019-05-07T05:59:49.175Z,99789.42
2019-05-07T06:02:33.211Z,99784.43
2019-05-07T06:05:23.963Z,99781.24
2019-05-07T06:07:57.204Z,99781.02
2019-05-07T06:10:36.267Z,99778.98
2019-05-07T06:13:18.533Z,99776.75
2019-05-07T06:15:54.724Z,99778.16
2019-05-07T06:18:27.790Z,99773.87
2019-05-07T06:21:03.001Z,99773.43
2019-05-07T06:23:36.240Z,99768.11
2019-05-07T06:26:08.287Z,99764.62
2019-05-07T06:28:42.544Z,99761.39
2019-05-07T06:31:15.145Z,99764.63
2019-05-07T06:33:46.828Z,99753.55
2019-05-07T06:36:18.527Z,99750.67
2019-05-07T06:38:53.136Z,99745.12
2019-05-07T06:41:43.099Z,99743.39
2019-05-07T06:44:19.153Z,99745.90
2019-05-07T06:46:52.662Z,99746.83
2019-05-07T06:49:24.553Z,99744.08
2019-05-07T06:51:56.085Z,99741.19
2019-05-07T06:54:28.807Z,99738.42
2019-05-07T06:57:02.034Z,99732.81
2019-05-07T06:59:35.263Z,99732.05
2019-05-07T07:02:24.134Z,99739.88
2019-05-07T07:05:06.714Z,99735.66
2019-05-07T07:07:42.010Z,99727.53
2019-05-07T07:10:14.954Z,99723.52
2019-05-07T07:12:46.399Z,99723.28
2019-05-07T07:15:18.249Z,99727.23
2019-05-07T07:17:52.288Z,99728.73
2019-05-07T07:20:23.766Z,99714.56
2019-05-07T07:22:56.020Z,99714.56
2019-05-07T07:25:27.568Z,99708.84
2019-05-07T07:27:59.197Z,99700.92
2019-05-07T07:30:38.237Z,99712.84
2019-05-07T07:33:12.138Z,99705.38
2019-05-07T07:35:44.074Z,99700.61
2019-05-07T07:38:34.618Z,99694.38
2019-05-07T07:41:13.111Z,99686.06
2019-05-07T07:43:44.828Z,99691.87
2019-05-07T07:46:16.798Z,99675.46
2019-05-07T07:49:03.306Z,99688.80
2019-05-07T07:51:37.256Z,99688.82
2019-05-07T07:53:55.371Z,99685.91
2019-05-07T07:56:49.055Z,99686.41
2019-05-07T07:59:27.083Z,99686.34
2019-05-07T08:02:03.044Z,99677.23
2019-05-07T08:04:34.885Z,99678.40
2019-05-07T08:07:06.648Z,99675.12
2019-05-07T08:09:38.371Z,99684.17
2019-05-07T08:12:12.723Z,99678.59
2019-05-07T08:14:44.577Z,99678.98
2019-05-07T08:17:16.124Z,99664.44
2019-05-07T08:19:47.993Z,99672.69
2019-05-07T08:22:19.445Z,99669.07
2019-05-07T08:24:51.988Z,99668.53
2019-05-07T08:27:23.665Z,99666.88
2019-05-07T08:29:55.508Z,99654.86
2019-05-07T08:32:43.791Z,99665.23
2019-05-07T08:35:21.959Z,99656.05
2019-05-07T08:37:53.711Z,99656.36
2019-05-07T08:40:25.565Z,99665.73
2019-05-07T08:42:57.470Z,99651.68
2019-05-07T08:45:46.699Z,99662.29
2019-05-07T08:48:21.640Z,99655.27
2019-05-07T08:50:53.220Z,99658.08
2019-05-07T08:53:24.842Z,99655.08
2019-05-07T08:55:56.198Z,99657.56
2019-05-07T08:58:27.493Z,99652.28
2019-05-07T09:01:02.899Z,99649.22
2019-05-07T09:03:43.159Z,99658.20
2019-05-07T09:06:17.796Z,99649.15
2019-05-07T09:08:49.470Z,99656.25
2019-05-07T09:11:23.024Z,99645.95
2019-05-07T09:13:54.661Z,99649.43
2019-05-07T09:16:26.259Z,99652.67
2019-05-07T09:18:58.113Z,99646.80
2019-05-07T09:21:32.119Z,99653.22
2019-05-07T09:24:04.529Z,99644.36
2019-05-07T09:26:54.458Z,99645.25
2019-05-07T09:29:27.784Z,99640.64
2019-05-07T09:32:13.617Z,99645.03
2019-05-07T09:34:46.767Z,99644.65
2019-05-07T09:37:19.840Z,99645.59
2019-05-07T09:39:51.941Z,99648.96
2019-05-07T09:42:23.575Z,99645.84
2019-05-07T09:44:55.401Z,99638.32
2019-05-07T09:47:26.951Z,99634.87
2019-05-07T09:50:04.543Z,99639.99
2019-05-07T09:52:34.771Z,99630.08
2019-05-07T09:55:16.636Z,99638.11
2019-05-07T09:57:42.474Z,99623.59
2019-05-07T10:00:15.272Z,99618.74
2019-05-07T10:02:46.870Z,99618.99
2019-05-07T10:05:18.735Z,99618.63
2019-05-07T10:07:52.488Z,99612.84
2019-05-07T10:10:24.017Z,99617.34
2019-05-07T10:13:08.220Z,99628.63
2019-05-07T10:15:41.783Z,99633.10
2019-05-07T10:18:15.449Z,99628.92
2019-05-07T10:20:47.334Z,99623.09
2019-05-07T10:23:23.137Z,99629.55
2019-05-07T10:25:56.477Z,99622.61
2019-05-07T10:28:28.088Z,99619.92
2019-05-07T10:31:00.887Z,99618.75
2019-05-07T10:33:32.731Z,99620.23
2019-05-07T10:36:03.457Z,99621.75
2019-05-07T10:38:35.198Z,99612.96
2019-05-07T10:41:07.486Z,99621.52
2019-05-07T10:43:38.339Z,99617.31
2019-05-07T10:46:23.636Z,99615.92
2019-05-07T10:48:59.499Z,99610.09
2019-05-07T10:51:32.236Z,99609.51
2019-05-07T10:54:03.969Z,99605.56
2019-05-07T10:56:35.753Z,99599.36
2019-05-07T10:59:07.574Z,99601.92
2019-05-07T11:01:42.559Z,99600.73
2019-05-07T11:04:14.099Z,99599.19
2019-05-07T11:06:46.017Z,99599.45
2019-05-07T11:09:17.555Z,99601.12
2019-05-07T11:11:49.348Z,99594.43
2019-05-07T11:14:21.732Z,99589.11
2019-05-07T11:17:04.195Z,99595.90
2019-05-07T11:19:35.663Z,99596.77
2019-05-07T11:22:07.359Z,99595.00
2019-05-07T11:24:38.982Z,99605.05
2019-05-07T11:27:11.967Z,99605.98
2019-05-07T11:29:43.836Z,99597.84
2019-05-07T11:32:15.680Z,99597.91
2019-05-07T11:34:47.165Z,99587.66
2019-05-07T11:37:18.951Z,99599.27
2019-05-07T11:39:52.321Z,99598.16
2019-05-07T11:42:25.381Z,99602.91
2019-05-07T11:44:56.824Z,99602.81
2019-05-07T11:47:32.953Z,99609.72
2019-05-07T11:50:25.734Z,99606.34
2019-05-07T11:52:58.933Z,99615.26
2019-05-07T11:55:31.604Z,99615.04
2019-05-07T11:58:03.299Z,99609.25
2019-05-07T12:00:42.864Z,99606.92
2019-05-07T12:03:14.463Z,99608.91
2019-05-07T12:05:46.157Z,99597.98
2019-05-07T12:08:17.786Z,99601.71
2019-05-07T12:10:51.675Z,99595.91
2019-05-07T12:13:22.658Z,99595.63
2019-05-07T12:15:54.484Z,99596.92
2019-05-07T12:18:26.251Z,99595.99
2019-05-07T12:20:57.876Z,99591.86
2019-05-07T12:23:29.751Z,99596.20
2019-05-07T12:26:02.206Z,99602.94
2019-05-07T12:28:34.298Z,99603.80
2019-05-07T12:31:14.075Z,99608.73
2019-05-07T12:33:53.483Z,99612.42
2019-05-07T12:36:25.042Z,99612.13
2019-05-07T12:38:57.030Z,99607.38
2019-05-07T12:41:34.731Z,99615.90
2019-05-07T12:44:08.078Z,99615.40
2019-05-07T12:46:39.545Z,99614.37
2019-05-07T12:49:12.033Z,99609.47
2019-05-07T12:51:48.320Z,99605.32
2019-05-07T12:54:30.328Z,99596.69
2019-05-07T12:57:02.490Z,99583.49
2019-05-07T12:59:34.387Z,99573.86
2019-05-07T13:02:33.435Z,99558.45
2019-05-07T13:04:52.144Z,99545.31
2019-05-07T13:07:25.236Z,99540.35
2019-05-07T13:09:57.118Z,99524.98
2019-05-07T13:12:28.279Z,99519.30
2019-05-07T13:14:59.841Z,99519.08
2019-05-07T13:17:33.813Z,99516.27
2019-05-07T13:20:07.335Z,99524.33
2019-05-07T13:22:38.686Z,99514.66
2019-05-07T13:25:10.758Z,99522.66
2019-05-07T13:27:42.933Z,99527.80
2019-05-07T13:30:15.528Z,99536.67
2019-05-07T13:32:48.302Z,99543.49
2019-05-07T13:35:19.915Z,99540.79
2019-05-07T13:38:04.722Z,99547.93
2019-05-07T13:40:38.141Z,99548.77
2019-05-07T13:43:23.254Z,99555.14
2019-05-07T13:46:02.597Z,99570.28
2019-05-07T13:48:36.889Z,99582.23
2019-05-07T13:51:08.698Z,99579.83
2019-05-07T13:53:40.187Z,99591.34
2019-05-07T13:56:12.889Z,99584.81
2019-05-07T13:58:44.681Z,99589.77
2019-05-07T14:01:24.055Z,99579.28
2019-05-07T14:03:55.987Z,99575.94
2019-05-07T14:06:39.535Z,99572.68
2019-05-07T14:09:14.507Z,99566.64
2019-05-07T14:11:46.302Z,99562.56
2019-05-07T14:14:17.949Z,99558.83
2019-05-07T14:16:49.601Z,99560.19
2019-05-07T14:19:22.520Z,99564.80
2019-05-07T14:21:54.619Z,99563.08
2019-05-07T14:24:26.283Z,99563.01
2019-05-07T14:26:58.689Z,99569.20
2019-05-07T14:29:32.062Z,99572.45
2019-05-07T14:32:17.146Z,99586.60
2019-05-07T14:35:09.185Z,99586.30
2019-05-07T14:37:45.294Z,99593.31
2019-05-07T14:40:17.177Z,99588.22
2019-05-07T14:42:52.428Z,99607.53
2019-05-07T14:45:23.926Z,99617.88
2019-05-07T14:47:55.857Z,99620.42
2019-05-07T14:50:27.546Z,99634.06
2019-05-07T14:52:59.232Z,99623.56
2019-05-07T14:55:34.810Z,99628.29
2019-05-07T14:58:07.416Z,99629.79
2019-05-07T15:00:39.028Z,99627.37
2019-05-07T15:03:12.467Z,99632.45
2019-05-07T15:05:44.687Z,99640.41
2019-05-07T15:08:16.371Z,99626.97
2019-05-07T15:10:49.485Z,99636.02
2019-05-07T15:13:21.892Z,99617.52
2019-05-07T15:15:52.666Z,99636.28
2019-05-07T15:18:25.919Z,99628.39
2019-05-07T15:20:57.385Z,99618.06
2019-05-07T15:23:30.904Z,99603.32
2019-05-07T15:26:04.816Z,99599.15
2019-05-07T15:28:38.031Z,99598.00
2019-05-07T15:31:13.796Z,99612.97
2019-05-07T15:33:45.538Z,99618.95
2019-05-07T15:36:16.890Z,99629.47
2019-05-07T15:38:48.994Z,99631.77
2019-05-07T15:41:22.680Z,99650.00
2019-05-07T15:43:53.804Z,99648.16
2019-05-07T15:46:25.494Z,99616.37
2019-05-07T15:48:57.089Z,99572.28
2019-05-07T15:51:28.887Z,99545.25
2019-05-07T15:54:03.497Z,99541.38
2019-05-07T15:56:34.873Z,99578.53
2019-05-07T15:59:06.656Z,99678.80
2019-05-07T16:01:38.223Z,99789.20
2019-05-07T16:04:19.915Z,99839.55
2019-05-07T16:06:43.113Z,99858.52
2019-05-07T16:09:15.117Z,99738.89
2019-05-07T16:11:46.629Z,99721.63
2019-05-07T16:14:22.521Z,99772.77
2019-05-07T16:16:55.210Z,99736.16
2019-05-07T16:19:28.716Z,99727.98
2019-05-07T16:22:03.831Z,99735.68
2019-05-07T16:24:36.131Z,99724.98
2019-05-07T16:27:07.453Z,99727.02
2019-05-07T16:29:38.749Z,99726.92
2019-05-07T16:32:11.128Z,99728.48
2019-05-07T16:34:43.108Z,99715.87
2019-05-07T16:37:14.949Z,99703.23
2019-05-07T16:39:46.553Z,99694.20
2019-05-07T16:42:21.675Z,99688.54
2019-05-07T16:44:52.687Z,99705.29
2019-05-07T16:47:26.760Z,99700.03
2019-05-07T16:49:58.390Z,99688.16
2019-05-07T16:52:34.745Z,99686.69
2019-05-07T16:55:04.556Z,99680.42
2019-05-07T16:57:42.388Z,99684.80
2019-05-07T17:00:16.308Z,99679.46
2019-05-07T17:02:51.641Z,99686.16
2019-05-07T17:05:23.277Z,99683.88
2019-05-07T17:07:59.677Z,99682.63
2019-05-07T17:10:31.809Z,99680.63
2019-05-07T17:13:03.677Z,99682.37
2019-05-07T17:15:37.168Z,99682.20
2019-05-07T17:18:08.886Z,99684.73
2019-05-07T17:20:42.917Z,99688.17
2019-05-07T17:23:14.504Z,99680.24
2019-05-07T17:25:46.508Z,99692.96
2019-05-07T17:28:19.433Z,99707.78
2019-05-07T17:30:52.444Z,99695.55
2019-05-07T17:33:24.962Z,99698.30
2019-05-07T17:35:56.756Z,99697.72
2019-05-07T17:38:28.671Z,99693.88
2019-05-07T17:41:10.836Z,99699.27
2019-05-07T17:43:35.546Z,99696.72
2019-05-07T17:46:07.474Z,99705.80
2019-05-07T17:48:39.512Z,99706.81
2019-05-07T17:51:13.064Z,99705.31
2019-05-07T17:53:56.807Z,99698.92
2019-05-07T17:56:18.252Z,99714.44
2019-05-07T17:58:52.097Z,99707.89
2019-05-07T18:01:24.997Z,99707.89
2019-05-07T18:03:56.861Z,99708.11
2019-05-07T18:06:28.357Z,99718.23
2019-05-07T18:09:02.754Z,99701.81
2019-05-07T18:11:35.444Z,99697.34
2019-05-07T18:14:07.731Z,99701.28
2019-05-07T18:16:43.912Z,99705.13
2019-05-07T18:19:15.640Z,99703.66
2019-05-07T18:21:47.351Z,99701.06
2019-05-07T18:24:19.348Z,99705.87
2019-05-07T18:26:52.599Z,99710.70
2019-05-07T18:29:24.594Z,99712.27
2019-05-07T18:31:57.824Z,99716.27
2019-05-07T18:34:29.286Z,99714.84
2019-05-07T18:37:02.094Z,99718.04
2019-05-07T18:39:34.059Z,99720.59
2019-05-07T18:42:09.615Z,99723.68
2019-05-07T18:44:41.767Z,99730.76
2019-05-07T18:47:14.896Z,99736.98
2019-05-07T18:49:46.575Z,99735.13
2019-05-07T18:52:19.515Z,99743.95
2019-05-07T18:54:52.041Z,99744.20
2019-05-07T18:57:24.077Z,99732.33
2019-05-07T18:59:55.598Z,99728.38
2019-05-07T19:02:28.004Z,99720.38
2019-05-07T19:04:59.680Z,99721.34
2019-05-07T19:07:32.427Z,99732.13
2019-05-07T19:10:05.155Z,99737.22
2019-05-07T19:12:37.853Z,99735.75
2019-05-07T19:15:12.412Z,99735.39
2019-05-07T19:17:44.358Z,99741.50
2019-05-07T19:20:16.012Z,99740.75
2019-05-07T19:22:48.010Z,99736.38
2019-05-07T19:25:19.866Z,99735.61
2019-05-07T19:27:53.271Z,99735.12
2019-05-07T19:30:25.369Z,99731.00
2019-05-07T19:32:57.377Z,99722.86
2019-05-07T19:35:29.020Z,99722.94
2019-05-07T19:38:02.811Z,99722.37
2019-05-07T19:40:35.649Z,99715.79
2019-05-07T19:43:07.463Z,99723.11
2019-05-07T19:45:39.262Z,99729.06
2019-05-07T19:48:12.432Z,99733.89
2019-05-07T19:50:44.795Z,99727.98
2019-05-07T19:53:16.675Z,99728.93
2019-05-07T19:56:06.422Z,99725.30
2019-05-07T19:58:37.890Z,99718.69
2019-05-07T20:01:12.095Z,99721.20
2019-05-07T20:03:43.853Z,99714.79
2019-05-07T20:06:15.743Z,99722.14
2019-05-07T20:08:47.254Z,99720.66
2019-05-07T20:11:27.021Z,99726.59
2019-05-07T20:13:58.684Z,99735.22
2019-05-07T20:16:32.969Z,99744.75
2019-05-07T20:19:03.911Z,99747.42
2019-05-07T20:21:36.358Z,99746.34
2019-05-07T20:24:08.266Z,99747.12
2019-05-07T20:26:40.340Z,99750.58
2019-05-07T20:29:12.412Z,99748.25
2019-05-07T20:31:44.503Z,99748.61
2019-05-07T20:34:15.971Z,99752.91
2019-05-07T20:36:47.959Z,99750.59
2019-05-07T20:39:19.439Z,99754.97
2019-05-07T20:41:52.673Z,99746.69
2019-05-07T20:44:25.263Z,99756.63
2019-05-07T20:46:58.738Z,99764.74
2019-05-07T20:49:32.038Z,99770.44
2019-05-07T20:52:04.399Z,99768.66
2019-05-07T20:54:49.834Z,99775.80
2019-05-07T20:57:23.157Z,99777.97
2019-05-07T20:59:56.237Z,99782.41
2019-05-07T21:02:42.433Z,99783.34
2019-05-07T21:05:02.973Z,99787.78
2019-05-07T21:07:34.775Z,99788.17
2019-05-07T21:10:07.208Z,99782.87
2019-05-07T21:12:39.224Z,99787.95
2019-05-07T21:15:12.408Z,99789.91
2019-05-07T21:17:43.663Z,99788.34
2019-05-07T21:20:15.402Z,99784.08
2019-05-07T21:22:48.008Z,99781.38
2019-05-07T21:25:20.064Z,99779.63
2019-05-07T21:27:53.125Z,99782.05
2019-05-07T21:30:25.490Z,99781.52
2019-05-07T21:32:56.630Z,99787.45
2019-05-07T21:35:28.377Z,99785.47
2019-05-07T21:37:59.942Z,99785.57
2019-05-07T21:40:32.145Z,99782.94
2019-05-07T21:43:03.630Z,99786.03
2019-05-07T21:45:35.829Z,99791.66
2019-05-07T21:48:07.483Z,99789.70
2019-05-07T21:50:39.523Z,99789.84
2019-05-07T21:53:13.684Z,99787.95
2019-05-07T21:56:01.726Z,99789.41
2019-05-07T21:58:34.691Z,99787.53
2019-05-07T22:01:08.202Z,99788.73
2019-05-07T22:03:43.223Z,99789.27
2019-05-07T22:06:15.206Z,99793.86
2019-05-07T22:08:46.844Z,99795.49
2019-05-07T22:11:18.573Z,99799.48
2019-05-07T22:13:54.418Z,99790.05
2019-05-07T22:16:23.892Z,99799.05
2019-05-07T22:18:55.575Z,99786.47
2019-05-07T22:21:29.231Z,99789.95
2019-05-07T22:24:02.782Z,99793.97
2019-05-07T22:26:34.372Z,99801.08
2019-05-07T22:29:06.021Z,99798.05
2019-05-07T22:31:48.641Z,99805.73
2019-05-07T22:34:22.312Z,99802.08
2019-05-07T22:36:55.641Z,99799.34
2019-05-07T22:39:45.343Z,99795.75
2019-05-07T22:42:32.698Z,99796.78
2019-05-07T22:45:05.418Z,99803.00
2019-05-07T22:47:38.950Z,99805.39
2019-05-07T22:50:11.993Z,99807.80
2019-05-07T22:52:43.321Z,99804.28
2019-05-07T22:55:15.311Z,99806.03
2019-05-07T22:57:49.048Z,99806.31
2019-05-07T23:00:22.675Z,99810.91
2019-05-07T23:02:54.424Z,99809.44
2019-05-07T23:05:26.375Z,99808.94
2019-05-07T23:07:58.405Z,99808.94
2019-05-07T23:10:30.298Z,99812.04
2019-05-07T23:13:02.408Z,99823.38
2019-05-07T23:15:34.528Z,99831.03
2019-05-07T23:18:06.213Z,99829.78
2019-05-07T23:20:38.741Z,99833.52
2019-05-07T23:23:13.945Z,99856.32
2019-05-07T23:25:43.908Z,99870.58
2019-05-07T23:28:15.503Z,99878.16
2019-05-07T23:30:47.618Z,99882.74
2019-05-07T23:33:19.671Z,99886.48
2019-05-07T23:35:52.766Z,99894.30
2019-05-07T23:38:24.524Z,99896.89
2019-05-07T23:41:03.592Z,99894.53
2019-05-07T23:43:35.371Z,99891.45
2019-05-07T23:46:07.488Z,99894.08
2019-05-07T23:48:39.197Z,99888.97
2019-05-07T23:51:12.623Z,99888.54
2019-05-07T23:53:44.584Z,99891.56
2019-05-07T23:56:16.663Z,99903.72
2019-05-07T23:58:48.570Z,99900.17
